sensor_id;sensor_type;location;lat;lon;timestamp;P1;durP1;ratioP1;P2;durP2;ratioP2
46415;SDS011;32620;51.704;7.822;2023-03-05T00:02:05;15.02;;;3.70;;
46415;SDS011;32620;51.704;7.822;2023-03-05T00:04:31;15.30;;;3.40;;
46415;SDS011;32620;51.704;7.822;2023-03-05T00:06:56;10.18;;;3.38;;
46415;SDS011;32620;51.704;7.822;2023-03-05T00:09:22;16.75;;;3.40;;
46415;SDS011;32620;51.704;7.822;2023-03-05T00:11:47;14.02;;;3.55;;
46415;SDS011;32620;51.704;7.822;2023-03-05T00:14:13;12.63;;;3.40;;
46415;SDS011;32620;51.704;7.822;2023-03-05T00:16:39;17.15;;;3.72;;
46415;SDS011;32620;51.704;7.822;2023-03-05T00:19:05;13.90;;;3.55;;
46415;SDS011;32620;51.704;7.822;2023-03-05T00:21:33;13.18;;;3.13;;
46415;SDS011;32620;51.704;7.822;2023-03-05T00:24:03;9.00;;;2.33;;
46415;SDS011;32620;51.704;7.822;2023-03-05T00:26:30;13.23;;;2.80;;
46415;SDS011;32620;51.704;7.822;2023-03-05T00:28:58;16.08;;;3.63;;
46415;SDS011;32620;51.704;7.822;2023-03-05T00:31:25;14.60;;;3.28;;
46415;SDS011;32620;51.704;7.822;2023-03-05T00:33:56;14.73;;;3.35;;
46415;SDS011;32620;51.704;7.822;2023-03-05T00:36:24;10.60;;;3.00;;
46415;SDS011;32620;51.704;7.822;2023-03-05T00:38:50;13.25;;;3.50;;
46415;SDS011;32620;51.704;7.822;2023-03-05T00:41:16;15.88;;;3.85;;
46415;SDS011;32620;51.704;7.822;2023-03-05T00:43:42;14.95;;;3.38;;
46415;SDS011;32620;51.704;7.822;2023-03-05T00:46:08;11.20;;;3.20;;
46415;SDS011;32620;51.704;7.822;2023-03-05T00:48:33;15.57;;;3.33;;
46415;SDS011;32620;51.704;7.822;2023-03-05T00:50:59;16.13;;;3.63;;
46415;SDS011;32620;51.704;7.822;2023-03-05T00:53:25;10.98;;;3.42;;
46415;SDS011;32620;51.704;7.822;2023-03-05T00:55:50;15.35;;;3.70;;
46415;SDS011;32620;51.704;7.822;2023-03-05T00:58:16;12.70;;;4.15;;
46415;SDS011;32620;51.704;7.822;2023-03-05T01:00:41;14.35;;;3.83;;
46415;SDS011;32620;51.704;7.822;2023-03-05T01:03:07;16.75;;;4.00;;
46415;SDS011;32620;51.704;7.822;2023-03-05T01:05:33;20.58;;;4.05;;
46415;SDS011;32620;51.704;7.822;2023-03-05T01:07:59;17.67;;;3.45;;
46415;SDS011;32620;51.704;7.822;2023-03-05T01:10:24;17.58;;;4.57;;
46415;SDS011;32620;51.704;7.822;2023-03-05T01:12:51;14.90;;;3.78;;
46415;SDS011;32620;51.704;7.822;2023-03-05T01:15:18;16.27;;;3.70;;
46415;SDS011;32620;51.704;7.822;2023-03-05T01:17:43;17.73;;;4.10;;
46415;SDS011;32620;51.704;7.822;2023-03-05T01:20:11;11.88;;;4.03;;
46415;SDS011;32620;51.704;7.822;2023-03-05T01:22:38;16.92;;;3.85;;
46415;SDS011;32620;51.704;7.822;2023-03-05T01:25:04;15.63;;;3.30;;
46415;SDS011;32620;51.704;7.822;2023-03-05T01:27:29;14.65;;;3.90;;
46415;SDS011;32620;51.704;7.822;2023-03-05T01:29:55;17.52;;;4.40;;
46415;SDS011;32620;51.704;7.822;2023-03-05T01:32:20;17.70;;;4.13;;
46415;SDS011;32620;51.704;7.822;2023-03-05T01:34:46;15.75;;;4.28;;
46415;SDS011;32620;51.704;7.822;2023-03-05T01:37:11;17.42;;;5.38;;
46415;SDS011;32620;51.704;7.822;2023-03-05T01:39:37;16.63;;;5.35;;
46415;SDS011;32620;51.704;7.822;2023-03-05T01:42:03;13.68;;;4.13;;
46415;SDS011;32620;51.704;7.822;2023-03-05T01:44:29;16.85;;;4.10;;
46415;SDS011;32620;51.704;7.822;2023-03-05T01:46:55;19.25;;;4.20;;
46415;SDS011;32620;51.704;7.822;2023-03-05T01:49:24;14.25;;;4.05;;
46415;SDS011;32620;51.704;7.822;2023-03-05T01:52:23;21.70;;;4.55;;
46415;SDS011;32620;51.704;7.822;2023-03-05T01:54:46;16.45;;;3.97;;
46415;SDS011;32620;51.704;7.822;2023-03-05T01:57:15;16.98;;;4.53;;
46415;SDS011;32620;51.704;7.822;2023-03-05T01:59:46;18.85;;;4.22;;
46415;SDS011;32620;51.704;7.822;2023-03-05T02:02:14;15.25;;;5.05;;
46415;SDS011;32620;51.704;7.822;2023-03-05T02:04:44;16.00;;;4.88;;
46415;SDS011;32620;51.704;7.822;2023-03-05T02:07:12;17.60;;;4.72;;
46415;SDS011;32620;51.704;7.822;2023-03-05T02:09:39;13.68;;;4.63;;
46415;SDS011;32620;51.704;7.822;2023-03-05T02:12:05;15.13;;;4.47;;
46415;SDS011;32620;51.704;7.822;2023-03-05T02:14:33;20.92;;;5.03;;
46415;SDS011;32620;51.704;7.822;2023-03-05T02:16:59;17.80;;;4.85;;
46415;SDS011;32620;51.704;7.822;2023-03-05T02:19:25;17.33;;;5.07;;
46415;SDS011;32620;51.704;7.822;2023-03-05T02:21:51;19.08;;;5.10;;
46415;SDS011;32620;51.704;7.822;2023-03-05T02:24:18;15.75;;;4.47;;
46415;SDS011;32620;51.704;7.822;2023-03-05T02:26:57;19.83;;;4.80;;
46415;SDS011;32620;51.704;7.822;2023-03-05T02:29:23;23.52;;;5.35;;
46415;SDS011;32620;51.704;7.822;2023-03-05T02:31:50;18.30;;;5.50;;
46415;SDS011;32620;51.704;7.822;2023-03-05T02:34:15;12.05;;;4.53;;
46415;SDS011;32620;51.704;7.822;2023-03-05T02:36:41;18.15;;;4.90;;
46415;SDS011;32620;51.704;7.822;2023-03-05T02:39:06;15.65;;;4.53;;
46415;SDS011;32620;51.704;7.822;2023-03-05T02:41:33;19.92;;;5.20;;
46415;SDS011;32620;51.704;7.822;2023-03-05T02:43:59;20.17;;;4.85;;
46415;SDS011;32620;51.704;7.822;2023-03-05T02:46:25;18.33;;;4.68;;
46415;SDS011;32620;51.704;7.822;2023-03-05T02:48:50;20.50;;;5.68;;
46415;SDS011;32620;51.704;7.822;2023-03-05T02:51:16;14.88;;;4.78;;
46415;SDS011;32620;51.704;7.822;2023-03-05T02:53:42;19.25;;;5.07;;
46415;SDS011;32620;51.704;7.822;2023-03-05T02:56:07;16.48;;;4.20;;
46415;SDS011;32620;51.704;7.822;2023-03-05T02:58:33;22.17;;;4.50;;
46415;SDS011;32620;51.704;7.822;2023-03-05T03:00:58;21.40;;;4.50;;
46415;SDS011;32620;51.704;7.822;2023-03-05T03:03:24;20.50;;;5.32;;
46415;SDS011;32620;51.704;7.822;2023-03-05T03:05:49;15.20;;;4.03;;
46415;SDS011;32620;51.704;7.822;2023-03-05T03:08:15;15.75;;;4.38;;
46415;SDS011;32620;51.704;7.822;2023-03-05T03:10:40;14.77;;;3.95;;
46415;SDS011;32620;51.704;7.822;2023-03-05T03:13:06;15.77;;;3.97;;
46415;SDS011;32620;51.704;7.822;2023-03-05T03:15:32;15.50;;;4.38;;
46415;SDS011;32620;51.704;7.822;2023-03-05T03:17:57;18.33;;;4.07;;
46415;SDS011;32620;51.704;7.822;2023-03-05T03:20:23;17.08;;;4.05;;
46415;SDS011;32620;51.704;7.822;2023-03-05T03:22:48;14.63;;;4.45;;
46415;SDS011;32620;51.704;7.822;2023-03-05T03:25:15;17.63;;;5.00;;
46415;SDS011;32620;51.704;7.822;2023-03-05T03:27:43;19.92;;;4.68;;
46415;SDS011;32620;51.704;7.822;2023-03-05T03:30:09;16.48;;;4.43;;
46415;SDS011;32620;51.704;7.822;2023-03-05T03:32:35;11.85;;;3.75;;
46415;SDS011;32620;51.704;7.822;2023-03-05T03:35:00;14.20;;;4.80;;
46415;SDS011;32620;51.704;7.822;2023-03-05T03:37:27;16.33;;;4.40;;
46415;SDS011;32620;51.704;7.822;2023-03-05T03:39:53;14.30;;;4.03;;
46415;SDS011;32620;51.704;7.822;2023-03-05T03:42:19;15.90;;;4.35;;
46415;SDS011;32620;51.704;7.822;2023-03-05T03:44:46;15.70;;;4.18;;
46415;SDS011;32620;51.704;7.822;2023-03-05T03:47:11;15.45;;;4.13;;
46415;SDS011;32620;51.704;7.822;2023-03-05T03:49:37;15.05;;;4.38;;
46415;SDS011;32620;51.704;7.822;2023-03-05T03:52:02;16.25;;;4.72;;
46415;SDS011;32620;51.704;7.822;2023-03-05T03:54:28;14.00;;;4.45;;
46415;SDS011;32620;51.704;7.822;2023-03-05T03:56:54;16.98;;;4.68;;
46415;SDS011;32620;51.704;7.822;2023-03-05T03:59:19;18.10;;;5.43;;
46415;SDS011;32620;51.704;7.822;2023-03-05T04:01:45;18.30;;;5.28;;
46415;SDS011;32620;51.704;7.822;2023-03-05T04:04:11;12.50;;;4.07;;
46415;SDS011;32620;51.704;7.822;2023-03-05T04:06:38;19.48;;;5.03;;
46415;SDS011;32620;51.704;7.822;2023-03-05T04:09:04;20.15;;;5.38;;
46415;SDS011;32620;51.704;7.822;2023-03-05T04:11:29;12.40;;;4.30;;
46415;SDS011;32620;51.704;7.822;2023-03-05T04:13:55;16.83;;;4.97;;
46415;SDS011;32620;51.704;7.822;2023-03-05T04:16:21;20.42;;;4.90;;
46415;SDS011;32620;51.704;7.822;2023-03-05T04:18:47;18.27;;;4.45;;
46415;SDS011;32620;51.704;7.822;2023-03-05T04:21:12;16.08;;;5.25;;
46415;SDS011;32620;51.704;7.822;2023-03-05T04:23:38;18.25;;;4.78;;
46415;SDS011;32620;51.704;7.822;2023-03-05T04:26:04;20.23;;;5.05;;
46415;SDS011;32620;51.704;7.822;2023-03-05T04:28:30;13.45;;;5.40;;
46415;SDS011;32620;51.704;7.822;2023-03-05T04:30:56;18.90;;;4.22;;
46415;SDS011;32620;51.704;7.822;2023-03-05T04:33:22;15.77;;;4.30;;
46415;SDS011;32620;51.704;7.822;2023-03-05T04:35:47;15.75;;;4.57;;
46415;SDS011;32620;51.704;7.822;2023-03-05T04:38:14;23.45;;;5.47;;
46415;SDS011;32620;51.704;7.822;2023-03-05T04:40:39;26.92;;;5.97;;
46415;SDS011;32620;51.704;7.822;2023-03-05T04:43:05;19.67;;;5.07;;
46415;SDS011;32620;51.704;7.822;2023-03-05T04:45:31;21.55;;;5.15;;
46415;SDS011;32620;51.704;7.822;2023-03-05T04:47:57;12.93;;;4.95;;
46415;SDS011;32620;51.704;7.822;2023-03-05T04:50:22;14.93;;;4.82;;
46415;SDS011;32620;51.704;7.822;2023-03-05T04:52:48;14.00;;;5.40;;
46415;SDS011;32620;51.704;7.822;2023-03-05T04:55:14;17.10;;;5.22;;
46415;SDS011;32620;51.704;7.822;2023-03-05T04:57:41;16.25;;;5.22;;
46415;SDS011;32620;51.704;7.822;2023-03-05T05:00:08;13.70;;;5.00;;
46415;SDS011;32620;51.704;7.822;2023-03-05T05:02:38;12.55;;;4.75;;
46415;SDS011;32620;51.704;7.822;2023-03-05T05:05:06;13.30;;;4.68;;
46415;SDS011;32620;51.704;7.822;2023-03-05T05:07:32;16.08;;;4.88;;
46415;SDS011;32620;51.704;7.822;2023-03-05T05:09:58;16.27;;;5.00;;
46415;SDS011;32620;51.704;7.822;2023-03-05T05:12:23;16.48;;;5.38;;
46415;SDS011;32620;51.704;7.822;2023-03-05T05:14:53;17.88;;;4.95;;
46415;SDS011;32620;51.704;7.822;2023-03-05T05:17:18;16.42;;;4.40;;
46415;SDS011;32620;51.704;7.822;2023-03-05T05:19:44;18.55;;;4.75;;
46415;SDS011;32620;51.704;7.822;2023-03-05T05:22:09;16.27;;;4.80;;
46415;SDS011;32620;51.704;7.822;2023-03-05T05:24:35;20.25;;;5.30;;
46415;SDS011;32620;51.704;7.822;2023-03-05T05:27:00;19.73;;;5.53;;
46415;SDS011;32620;51.704;7.822;2023-03-05T05:29:26;14.70;;;5.15;;
46415;SDS011;32620;51.704;7.822;2023-03-05T05:31:51;16.95;;;5.25;;
46415;SDS011;32620;51.704;7.822;2023-03-05T05:34:18;16.50;;;4.63;;
46415;SDS011;32620;51.704;7.822;2023-03-05T05:36:43;12.63;;;5.03;;
46415;SDS011;32620;51.704;7.822;2023-03-05T05:39:09;10.43;;;4.68;;
46415;SDS011;32620;51.704;7.822;2023-03-05T05:41:35;17.42;;;5.10;;
46415;SDS011;32620;51.704;7.822;2023-03-05T05:44:00;13.95;;;5.13;;
46415;SDS011;32620;51.704;7.822;2023-03-05T05:46:26;13.32;;;4.55;;
46415;SDS011;32620;51.704;7.822;2023-03-05T05:48:53;21.33;;;5.55;;
46415;SDS011;32620;51.704;7.822;2023-03-05T05:51:19;14.10;;;4.75;;
46415;SDS011;32620;51.704;7.822;2023-03-05T05:53:47;18.48;;;5.45;;
46415;SDS011;32620;51.704;7.822;2023-03-05T05:56:14;13.25;;;5.45;;
46415;SDS011;32620;51.704;7.822;2023-03-05T05:58:41;11.43;;;4.43;;
46415;SDS011;32620;51.704;7.822;2023-03-05T06:01:12;16.50;;;5.18;;
46415;SDS011;32620;51.704;7.822;2023-03-05T06:03:44;14.73;;;4.95;;
46415;SDS011;32620;51.704;7.822;2023-03-05T06:06:10;13.38;;;4.82;;
46415;SDS011;32620;51.704;7.822;2023-03-05T06:08:37;14.68;;;5.57;;
46415;SDS011;32620;51.704;7.822;2023-03-05T06:11:02;15.50;;;5.30;;
46415;SDS011;32620;51.704;7.822;2023-03-05T06:13:28;12.55;;;5.25;;
46415;SDS011;32620;51.704;7.822;2023-03-05T06:15:56;12.85;;;4.85;;
46415;SDS011;32620;51.704;7.822;2023-03-05T06:18:22;13.57;;;5.63;;
46415;SDS011;32620;51.704;7.822;2023-03-05T06:20:52;18.30;;;6.18;;
46415;SDS011;32620;51.704;7.822;2023-03-05T06:23:19;14.02;;;5.57;;
46415;SDS011;32620;51.704;7.822;2023-03-05T06:25:45;12.95;;;5.85;;
46415;SDS011;32620;51.704;7.822;2023-03-05T06:28:10;13.48;;;6.07;;
46415;SDS011;32620;51.704;7.822;2023-03-05T06:30:36;20.13;;;6.07;;
46415;SDS011;32620;51.704;7.822;2023-03-05T06:33:01;23.92;;;6.30;;
46415;SDS011;32620;51.704;7.822;2023-03-05T06:35:27;21.30;;;6.43;;
46415;SDS011;32620;51.704;7.822;2023-03-05T06:37:52;22.30;;;6.50;;
46415;SDS011;32620;51.704;7.822;2023-03-05T06:40:18;18.13;;;6.90;;
46415;SDS011;32620;51.704;7.822;2023-03-05T06:42:43;17.13;;;6.45;;
46415;SDS011;32620;51.704;7.822;2023-03-05T06:45:09;15.35;;;6.15;;
46415;SDS011;32620;51.704;7.822;2023-03-05T06:47:34;18.75;;;7.20;;
46415;SDS011;32620;51.704;7.822;2023-03-05T06:50:00;18.00;;;6.32;;
46415;SDS011;32620;51.704;7.822;2023-03-05T06:52:25;20.02;;;7.10;;
46415;SDS011;32620;51.704;7.822;2023-03-05T06:54:51;27.50;;;7.60;;
46415;SDS011;32620;51.704;7.822;2023-03-05T06:57:19;19.88;;;7.57;;
46415;SDS011;32620;51.704;7.822;2023-03-05T06:59:46;14.90;;;7.53;;
46415;SDS011;32620;51.704;7.822;2023-03-05T07:02:11;20.38;;;8.02;;
46415;SDS011;32620;51.704;7.822;2023-03-05T07:04:37;23.75;;;7.80;;
46415;SDS011;32620;51.704;7.822;2023-03-05T07:07:03;13.40;;;6.90;;
46415;SDS011;32620;51.704;7.822;2023-03-05T07:09:28;20.80;;;8.10;;
46415;SDS011;32620;51.704;7.822;2023-03-05T07:11:54;21.70;;;8.68;;
46415;SDS011;32620;51.704;7.822;2023-03-05T07:14:20;22.42;;;8.25;;
46415;SDS011;32620;51.704;7.822;2023-03-05T07:16:46;18.42;;;8.35;;
46415;SDS011;32620;51.704;7.822;2023-03-05T07:19:12;26.45;;;8.88;;
46415;SDS011;32620;51.704;7.822;2023-03-05T07:21:38;20.50;;;8.57;;
46415;SDS011;32620;51.704;7.822;2023-03-05T07:24:04;21.00;;;8.65;;
46415;SDS011;32620;51.704;7.822;2023-03-05T07:26:30;27.38;;;9.57;;
46415;SDS011;32620;51.704;7.822;2023-03-05T07:28:57;19.80;;;9.35;;
46415;SDS011;32620;51.704;7.822;2023-03-05T07:31:24;23.02;;;9.20;;
46415;SDS011;32620;51.704;7.822;2023-03-05T07:33:54;19.63;;;9.70;;
46415;SDS011;32620;51.704;7.822;2023-03-05T07:36:21;25.70;;;9.30;;
46415;SDS011;32620;51.704;7.822;2023-03-05T07:38:47;25.08;;;9.40;;
46415;SDS011;32620;51.704;7.822;2023-03-05T07:41:13;23.75;;;9.70;;
46415;SDS011;32620;51.704;7.822;2023-03-05T07:43:46;23.13;;;10.40;;
46415;SDS011;32620;51.704;7.822;2023-03-05T07:46:14;20.35;;;9.43;;
46415;SDS011;32620;51.704;7.822;2023-03-05T07:48:41;22.08;;;10.00;;
46415;SDS011;32620;51.704;7.822;2023-03-05T07:51:08;22.40;;;9.60;;
46415;SDS011;32620;51.704;7.822;2023-03-05T07:53:38;17.58;;;8.32;;
46415;SDS011;32620;51.704;7.822;2023-03-05T07:56:04;19.45;;;8.35;;
46415;SDS011;32620;51.704;7.822;2023-03-05T07:58:30;17.95;;;8.10;;
46415;SDS011;32620;51.704;7.822;2023-03-05T08:00:56;15.70;;;8.07;;
46415;SDS011;32620;51.704;7.822;2023-03-05T08:03:21;21.25;;;8.57;;
46415;SDS011;32620;51.704;7.822;2023-03-05T08:05:47;25.27;;;10.27;;
46415;SDS011;32620;51.704;7.822;2023-03-05T08:08:13;23.85;;;9.60;;
46415;SDS011;32620;51.704;7.822;2023-03-05T08:10:38;20.50;;;10.05;;
46415;SDS011;32620;51.704;7.822;2023-03-05T08:13:04;27.67;;;10.27;;
46415;SDS011;32620;51.704;7.822;2023-03-05T08:15:30;26.25;;;10.00;;
46415;SDS011;32620;51.704;7.822;2023-03-05T08:17:56;20.85;;;10.32;;
46415;SDS011;32620;51.704;7.822;2023-03-05T08:20:22;18.73;;;10.18;;
46415;SDS011;32620;51.704;7.822;2023-03-05T08:22:48;20.30;;;10.57;;
46415;SDS011;32620;51.704;7.822;2023-03-05T08:25:14;19.95;;;10.75;;
46415;SDS011;32620;51.704;7.822;2023-03-05T08:27:41;25.35;;;10.73;;
46415;SDS011;32620;51.704;7.822;2023-03-05T08:30:09;20.15;;;10.90;;
46415;SDS011;32620;51.704;7.822;2023-03-05T08:32:37;23.17;;;10.07;;
46415;SDS011;32620;51.704;7.822;2023-03-05T08:35:02;19.70;;;10.13;;
46415;SDS011;32620;51.704;7.822;2023-03-05T08:37:29;24.17;;;10.25;;
46415;SDS011;32620;51.704;7.822;2023-03-05T08:39:54;17.38;;;10.02;;
46415;SDS011;32620;51.704;7.822;2023-03-05T08:42:20;23.08;;;9.80;;
46415;SDS011;32620;51.704;7.822;2023-03-05T08:44:46;17.02;;;9.52;;
46415;SDS011;32620;51.704;7.822;2023-03-05T08:47:12;23.45;;;9.23;;
46415;SDS011;32620;51.704;7.822;2023-03-05T08:49:37;19.00;;;9.20;;
46415;SDS011;32620;51.704;7.822;2023-03-05T08:52:03;18.67;;;8.50;;
46415;SDS011;32620;51.704;7.822;2023-03-05T08:54:29;15.38;;;9.00;;
46415;SDS011;32620;51.704;7.822;2023-03-05T08:56:54;19.50;;;9.60;;
46415;SDS011;32620;51.704;7.822;2023-03-05T08:59:20;20.13;;;9.65;;
46415;SDS011;32620;51.704;7.822;2023-03-05T09:01:45;11.68;;;7.70;;
46415;SDS011;32620;51.704;7.822;2023-03-05T09:04:11;14.52;;;7.82;;
46415;SDS011;32620;51.704;7.822;2023-03-05T09:06:37;16.70;;;8.30;;
46415;SDS011;32620;51.704;7.822;2023-03-05T09:09:05;12.32;;;7.22;;
46415;SDS011;32620;51.704;7.822;2023-03-05T09:11:31;11.75;;;7.65;;
46415;SDS011;32620;51.704;7.822;2023-03-05T09:14:00;12.50;;;7.07;;
46415;SDS011;32620;51.704;7.822;2023-03-05T09:16:27;13.85;;;7.60;;
46415;SDS011;32620;51.704;7.822;2023-03-05T09:18:52;14.55;;;7.32;;
46415;SDS011;32620;51.704;7.822;2023-03-05T09:21:18;16.13;;;7.10;;
46415;SDS011;32620;51.704;7.822;2023-03-05T09:23:43;15.07;;;7.20;;
46415;SDS011;32620;51.704;7.822;2023-03-05T09:26:11;15.32;;;6.70;;
46415;SDS011;32620;51.704;7.822;2023-03-05T09:28:39;12.65;;;6.70;;
46415;SDS011;32620;51.704;7.822;2023-03-05T09:31:06;13.48;;;6.60;;
46415;SDS011;32620;51.704;7.822;2023-03-05T09:33:33;11.90;;;5.88;;
46415;SDS011;32620;51.704;7.822;2023-03-05T09:36:00;13.82;;;5.85;;
46415;SDS011;32620;51.704;7.822;2023-03-05T09:38:26;14.25;;;6.30;;
46415;SDS011;32620;51.704;7.822;2023-03-05T09:43:45;10.63;;;5.70;;
46415;SDS011;32620;51.704;7.822;2023-03-05T09:46:21;12.00;;;5.90;;
46415;SDS011;32620;51.704;7.822;2023-03-05T09:48:59;10.90;;;5.93;;
46415;SDS011;32620;51.704;7.822;2023-03-05T09:51:50;8.70;;;5.50;;
46415;SDS011;32620;51.704;7.822;2023-03-05T09:54:26;8.80;;;5.50;;
46415;SDS011;32620;51.704;7.822;2023-03-05T09:57:00;8.82;;;5.55;;
46415;SDS011;32620;51.704;7.822;2023-03-05T09:59:32;13.23;;;6.00;;
46415;SDS011;32620;51.704;7.822;2023-03-05T10:02:16;12.70;;;5.90;;
46415;SDS011;32620;51.704;7.822;2023-03-05T10:04:47;10.43;;;5.30;;
46415;SDS011;32620;51.704;7.822;2023-03-05T10:07:24;12.65;;;5.32;;
46415;SDS011;32620;51.704;7.822;2023-03-05T10:09:55;10.67;;;4.77;;
46415;SDS011;32620;51.704;7.822;2023-03-05T10:12:56;10.05;;;5.07;;
46415;SDS011;32620;51.704;7.822;2023-03-05T10:15:20;12.65;;;5.68;;
46415;SDS011;32620;51.704;7.822;2023-03-05T10:18:45;11.00;;;5.22;;
46415;SDS011;32620;51.704;7.822;2023-03-05T10:21:20;13.68;;;5.63;;
46415;SDS011;32620;51.704;7.822;2023-03-05T10:26:49;14.40;;;5.22;;
46415;SDS011;32620;51.704;7.822;2023-03-05T10:29:38;8.27;;;4.90;;
46415;SDS011;32620;51.704;7.822;2023-03-05T10:32:27;8.40;;;4.00;;
46415;SDS011;32620;51.704;7.822;2023-03-05T10:35:22;6.75;;;3.40;;
46415;SDS011;32620;51.704;7.822;2023-03-05T10:40:50;4.55;;;3.50;;
46415;SDS011;32620;51.704;7.822;2023-03-05T10:46:11;7.10;;;4.15;;
46415;SDS011;32620;51.704;7.822;2023-03-05T10:48:57;8.30;;;4.10;;
46415;SDS011;32620;51.704;7.822;2023-03-05T10:51:37;6.90;;;3.22;;
46415;SDS011;32620;51.704;7.822;2023-03-05T10:54:11;6.35;;;3.80;;
46415;SDS011;32620;51.704;7.822;2023-03-05T10:56:49;7.18;;;4.25;;
46415;SDS011;32620;51.704;7.822;2023-03-05T10:59:15;11.20;;;5.07;;
46415;SDS011;32620;51.704;7.822;2023-03-05T11:01:40;10.85;;;5.38;;
46415;SDS011;32620;51.704;7.822;2023-03-05T11:04:06;7.22;;;4.43;;
46415;SDS011;32620;51.704;7.822;2023-03-05T11:06:49;12.10;;;5.05;;
46415;SDS011;32620;51.704;7.822;2023-03-05T11:12:05;12.48;;;5.82;;
46415;SDS011;32620;51.704;7.822;2023-03-05T11:14:37;13.35;;;6.07;;
46415;SDS011;32620;51.704;7.822;2023-03-05T11:17:21;9.90;;;5.80;;
46415;SDS011;32620;51.704;7.822;2023-03-05T11:19:52;13.02;;;5.47;;
46415;SDS011;32620;51.704;7.822;2023-03-05T11:22:20;10.52;;;5.30;;
46415;SDS011;32620;51.704;7.822;2023-03-05T11:25:18;9.68;;;6.10;;
46415;SDS011;32620;51.704;7.822;2023-03-05T11:27:47;7.68;;;4.07;;
46415;SDS011;32620;51.704;7.822;2023-03-05T11:30:19;8.50;;;3.15;;
46415;SDS011;32620;51.704;7.822;2023-03-05T11:32:49;8.23;;;2.28;;
46415;SDS011;32620;51.704;7.822;2023-03-05T11:35:31;5.63;;;1.27;;
46415;SDS011;32620;51.704;7.822;2023-03-05T11:38:00;1.88;;;0.80;;
46415;SDS011;32620;51.704;7.822;2023-03-05T11:40:27;2.47;;;0.55;;
46415;SDS011;32620;51.704;7.822;2023-03-05T11:42:55;2.22;;;1.00;;
46415;SDS011;32620;51.704;7.822;2023-03-05T11:45:23;0.82;;;0.73;;
46415;SDS011;32620;51.704;7.822;2023-03-05T11:47:52;2.72;;;0.57;;
46415;SDS011;32620;51.704;7.822;2023-03-05T11:50:29;1.70;;;0.68;;
46415;SDS011;32620;51.704;7.822;2023-03-05T11:52:57;3.30;;;1.15;;
46415;SDS011;32620;51.704;7.822;2023-03-05T11:56:00;3.40;;;0.73;;
46415;SDS011;32620;51.704;7.822;2023-03-05T12:01:22;2.40;;;1.05;;
46415;SDS011;32620;51.704;7.822;2023-03-05T12:03:49;1.83;;;0.90;;
46415;SDS011;32620;51.704;7.822;2023-03-05T12:09:07;4.70;;;1.15;;
46415;SDS011;32620;51.704;7.822;2023-03-05T12:11:37;3.70;;;1.80;;
46415;SDS011;32620;51.704;7.822;2023-03-05T12:14:10;4.50;;;1.38;;
46415;SDS011;32620;51.704;7.822;2023-03-05T12:16:47;2.53;;;1.35;;
46415;SDS011;32620;51.704;7.822;2023-03-05T12:19:44;2.15;;;1.27;;
46415;SDS011;32620;51.704;7.822;2023-03-05T12:22:22;2.00;;;1.30;;
46415;SDS011;32620;51.704;7.822;2023-03-05T12:24:50;2.65;;;1.42;;
46415;SDS011;32620;51.704;7.822;2023-03-05T12:27:31;1.88;;;1.05;;
46415;SDS011;32620;51.704;7.822;2023-03-05T12:29:59;1.67;;;1.13;;
46415;SDS011;32620;51.704;7.822;2023-03-05T12:34:58;4.15;;;1.40;;
46415;SDS011;32620;51.704;7.822;2023-03-05T12:40:26;3.20;;;1.40;;
46415;SDS011;32620;51.704;7.822;2023-03-05T12:43:03;3.13;;;1.63;;
46415;SDS011;32620;51.704;7.822;2023-03-05T12:53:17;4.10;;;1.38;;
46415;SDS011;32620;51.704;7.822;2023-03-05T12:58:52;3.85;;;1.70;;
46415;SDS011;32620;51.704;7.822;2023-03-05T13:03:48;3.20;;;1.50;;
46415;SDS011;32620;51.704;7.822;2023-03-05T13:06:27;3.05;;;1.48;;
46415;SDS011;32620;51.704;7.822;2023-03-05T13:09:01;3.28;;;1.50;;
46415;SDS011;32620;51.704;7.822;2023-03-05T13:11:31;2.08;;;1.33;;
46415;SDS011;32620;51.704;7.822;2023-03-05T13:14:01;5.03;;;2.13;;
46415;SDS011;32620;51.704;7.822;2023-03-05T13:16:28;4.72;;;1.40;;
46415;SDS011;32620;51.704;7.822;2023-03-05T13:19:01;3.30;;;1.52;;
46415;SDS011;32620;51.704;7.822;2023-03-05T13:21:28;4.10;;;1.77;;
46415;SDS011;32620;51.704;7.822;2023-03-05T13:23:57;6.07;;;2.00;;
46415;SDS011;32620;51.704;7.822;2023-03-05T13:26:26;13.32;;;4.40;;
46415;SDS011;32620;51.704;7.822;2023-03-05T13:29:25;7.22;;;2.95;;
46415;SDS011;32620;51.704;7.822;2023-03-05T13:34:21;4.72;;;1.83;;
46415;SDS011;32620;51.704;7.822;2023-03-05T13:36:58;3.40;;;1.40;;
46415;SDS011;32620;51.704;7.822;2023-03-05T13:39:29;4.47;;;1.60;;
46415;SDS011;32620;51.704;7.822;2023-03-05T13:42:00;1.90;;;1.42;;
46415;SDS011;32620;51.704;7.822;2023-03-05T13:44:28;5.35;;;1.98;;
46415;SDS011;32620;51.704;7.822;2023-03-05T13:47:26;6.45;;;2.05;;
46415;SDS011;32620;51.704;7.822;2023-03-05T13:49:42;3.85;;;2.47;;
46415;SDS011;32620;51.704;7.822;2023-03-05T13:52:08;2.60;;;1.40;;
46415;SDS011;32620;51.704;7.822;2023-03-05T13:54:34;2.90;;;1.50;;
46415;SDS011;32620;51.704;7.822;2023-03-05T13:57:01;4.15;;;1.88;;
46415;SDS011;32620;51.704;7.822;2023-03-05T13:59:30;5.50;;;2.00;;
46415;SDS011;32620;51.704;7.822;2023-03-05T14:02:00;7.72;;;1.63;;
46415;SDS011;32620;51.704;7.822;2023-03-05T14:04:40;4.47;;;1.65;;
46415;SDS011;32620;51.704;7.822;2023-03-05T14:07:24;6.47;;;1.90;;
46415;SDS011;32620;51.704;7.822;2023-03-05T14:09:55;2.58;;;1.83;;
46415;SDS011;32620;51.704;7.822;2023-03-05T14:15:22;3.88;;;1.45;;
46415;SDS011;32620;51.704;7.822;2023-03-05T14:17:50;2.83;;;1.45;;
46415;SDS011;32620;51.704;7.822;2023-03-05T14:20:24;1.77;;;0.93;;
46415;SDS011;32620;51.704;7.822;2023-03-05T14:22:54;1.50;;;0.98;;
46415;SDS011;32620;51.704;7.822;2023-03-05T14:25:36;2.80;;;1.20;;
46415;SDS011;32620;51.704;7.822;2023-03-05T14:28:06;4.60;;;1.67;;
46415;SDS011;32620;51.704;7.822;2023-03-05T14:30:45;4.32;;;1.02;;
46415;SDS011;32620;51.704;7.822;2023-03-05T14:33:12;6.68;;;1.73;;
46415;SDS011;32620;51.704;7.822;2023-03-05T14:35:38;3.10;;;1.25;;
46415;SDS011;32620;51.704;7.822;2023-03-05T14:38:04;2.67;;;1.38;;
46415;SDS011;32620;51.704;7.822;2023-03-05T14:40:33;2.63;;;1.52;;
46415;SDS011;32620;51.704;7.822;2023-03-05T14:43:02;3.75;;;1.25;;
46415;SDS011;32620;51.704;7.822;2023-03-05T14:45:30;1.98;;;1.10;;
46415;SDS011;32620;51.704;7.822;2023-03-05T14:47:59;4.45;;;1.20;;
46415;SDS011;32620;51.704;7.822;2023-03-05T14:50:27;3.83;;;1.00;;
46415;SDS011;32620;51.704;7.822;2023-03-05T14:52:57;4.10;;;1.10;;
46415;SDS011;32620;51.704;7.822;2023-03-05T14:55:27;2.00;;;1.00;;
46415;SDS011;32620;51.704;7.822;2023-03-05T14:57:59;4.53;;;1.10;;
46415;SDS011;32620;51.704;7.822;2023-03-05T15:00:28;2.33;;;1.00;;
46415;SDS011;32620;51.704;7.822;2023-03-05T15:02:53;2.25;;;1.10;;
46415;SDS011;32620;51.704;7.822;2023-03-05T15:05:19;3.17;;;1.33;;
46415;SDS011;32620;51.704;7.822;2023-03-05T15:07:45;2.63;;;1.20;;
46415;SDS011;32620;51.704;7.822;2023-03-05T15:10:14;1.73;;;1.52;;
46415;SDS011;32620;51.704;7.822;2023-03-05T15:12:43;2.30;;;1.10;;
46415;SDS011;32620;51.704;7.822;2023-03-05T15:15:10;2.85;;;1.75;;
46415;SDS011;32620;51.704;7.822;2023-03-05T15:17:39;3.15;;;1.67;;
46415;SDS011;32620;51.704;7.822;2023-03-05T15:20:10;1.98;;;1.55;;
46415;SDS011;32620;51.704;7.822;2023-03-05T15:22:36;5.45;;;1.67;;
46415;SDS011;32620;51.704;7.822;2023-03-05T15:25:02;3.38;;;1.90;;
46415;SDS011;32620;51.704;7.822;2023-03-05T15:27:28;2.17;;;1.40;;
46415;SDS011;32620;51.704;7.822;2023-03-05T15:29:53;2.63;;;1.65;;
46415;SDS011;32620;51.704;7.822;2023-03-05T15:32:19;2.15;;;1.40;;